createdAt,value
2022-12-29T00:00:22.842Z,19.62
2022-12-29T00:03:24.669Z,22.13
2022-12-29T00:06:27.204Z,22.83
2022-12-29T00:09:28.907Z,26.50
2022-12-29T00:12:50.574Z,26.33
2022-12-29T00:15:52.422Z,19.40
2022-12-29T00:18:54.177Z,21.35
2022-12-29T00:22:14.759Z,21.25
2022-12-29T00:25:35.151Z,17.65
2022-12-29T00:28:55.636Z,16.92
2022-12-29T00:32:15.974Z,15.93
2022-12-29T00:35:32.940Z,14.38
2022-12-29T00:38:57.025Z,16.30
2022-12-29T00:42:25.252Z,16.90
2022-12-29T00:45:26.965Z,16.23
2022-12-29T00:48:47.031Z,17.10
2022-12-29T00:51:49.241Z,15.18
2022-12-29T00:54:50.984Z,16.20
2022-12-29T00:57:52.649Z,15.27
2022-12-29T01:01:02.197Z,14.43
2022-12-29T01:04:04.963Z,17.60
2022-12-29T01:07:06.958Z,18.83
2022-12-29T01:10:11.846Z,16.62
2022-12-29T01:13:13.574Z,14.30
2022-12-29T01:16:15.490Z,12.70
2022-12-29T01:19:18.913Z,13.75
2022-12-29T01:22:20.577Z,12.18
2022-12-29T01:25:22.256Z,13.68
2022-12-29T01:28:26.356Z,11.98
2022-12-29T01:31:28.180Z,13.20
2022-12-29T01:34:29.897Z,14.77
2022-12-29T01:37:31.582Z,13.55
2022-12-29T01:40:33.336Z,12.40
2022-12-29T01:43:53.377Z,11.98
2022-12-29T01:46:55.095Z,11.93
2022-12-29T01:50:00.028Z,13.05
2022-12-29T01:53:16.700Z,12.80
2022-12-29T01:56:21.517Z,12.23
2022-12-29T01:59:29.089Z,12.73
2022-12-29T02:02:33.457Z,11.57
2022-12-29T02:05:43.258Z,12.37
2022-12-29T02:08:47.872Z,12.80
2022-12-29T02:11:49.634Z,11.10
2022-12-29T02:14:56.566Z,11.75
2022-12-29T02:18:13.197Z,12.88
2022-12-29T02:21:39.138Z,12.32
2022-12-29T02:25:37.724Z,12.60
2022-12-29T02:29:00.933Z,13.00
2022-12-29T02:32:07.839Z,12.65
2022-12-29T02:35:15.416Z,13.65
2022-12-29T02:41:39.578Z,12.88
2022-12-29T02:44:53.559Z,13.52
2022-12-29T02:48:24.881Z,14.23
2022-12-29T02:51:34.354Z,14.50
2022-12-29T02:54:43.300Z,13.73
2022-12-29T02:57:45.146Z,12.63
2022-12-29T03:01:34.934Z,12.65
2022-12-29T03:05:11.949Z,12.50
2022-12-29T03:08:46.654Z,13.18
2022-12-29T03:12:08.699Z,12.43
2022-12-29T03:15:38.749Z,14.18
2022-12-29T03:19:03.602Z,13.90
2022-12-29T03:22:28.096Z,15.23
2022-12-29T03:25:34.948Z,13.82
2022-12-29T03:28:40.978Z,14.82
2022-12-29T03:31:43.800Z,14.18
2022-12-29T03:34:46.213Z,15.77
2022-12-29T03:37:56.334Z,14.20
2022-12-29T03:41:00.967Z,14.63
2022-12-29T03:44:02.629Z,13.55
2022-12-29T03:47:05.460Z,14.38
2022-12-29T03:50:09.635Z,13.82
2022-12-29T03:53:11.334Z,13.88
2022-12-29T03:56:13.024Z,13.77
2022-12-29T03:59:14.757Z,14.65
2022-12-29T04:02:16.652Z,14.63
2022-12-29T04:05:20.320Z,14.27
2022-12-29T04:08:22.035Z,14.60
2022-12-29T04:11:27.120Z,15.15
2022-12-29T04:14:31.487Z,15.00
2022-12-29T04:17:33.164Z,14.50
2022-12-29T04:20:53.108Z,14.82
2022-12-29T04:23:54.842Z,13.18
2022-12-29T04:26:56.697Z,13.38
2022-12-29T04:29:58.382Z,14.57
2022-12-29T04:33:00.048Z,14.13
2022-12-29T04:36:01.836Z,14.77
2022-12-29T04:39:06.192Z,14.95
2022-12-29T04:42:07.892Z,16.15
2022-12-29T04:45:09.917Z,14.50
2022-12-29T04:48:11.898Z,14.52
2022-12-29T04:51:13.822Z,15.52
2022-12-29T04:54:16.087Z,14.57
2022-12-29T04:57:17.769Z,14.15
2022-12-29T05:00:19.747Z,13.50
2022-12-29T05:03:21.538Z,14.02
2022-12-29T05:06:23.304Z,14.30
2022-12-29T05:09:25.311Z,14.35
2022-12-29T05:12:30.124Z,13.43
2022-12-29T05:15:31.910Z,13.18
2022-12-29T05:18:33.595Z,13.13
2022-12-29T05:21:35.366Z,13.10
2022-12-29T05:24:37.036Z,13.80
2022-12-29T05:27:38.732Z,13.13
2022-12-29T05:30:40.645Z,13.95
2022-12-29T05:33:42.292Z,13.43
2022-12-29T05:36:44.025Z,14.73
2022-12-29T05:39:45.660Z,14.40
2022-12-29T05:42:47.351Z,14.55
2022-12-29T05:45:53.161Z,15.63
2022-12-29T05:48:54.837Z,16.12
2022-12-29T05:51:56.560Z,19.30
2022-12-29T05:54:58.177Z,27.60
2022-12-29T05:57:59.827Z,24.55
2022-12-29T06:01:01.529Z,36.53
2022-12-29T06:04:03.366Z,50.12
2022-12-29T06:07:05.147Z,45.53
2022-12-29T06:10:07.818Z,42.15
2022-12-29T06:13:10.053Z,43.30
2022-12-29T06:16:11.853Z,21.10
2022-12-29T06:19:13.577Z,18.45
2022-12-29T06:22:15.657Z,20.05
2022-12-29T06:25:17.691Z,17.52
2022-12-29T06:28:19.504Z,16.58
2022-12-29T06:31:21.325Z,16.17
2022-12-29T06:34:23.020Z,16.50
2022-12-29T06:37:24.763Z,17.50
2022-12-29T06:40:26.462Z,14.45
2022-12-29T06:43:28.107Z,14.35
2022-12-29T06:46:29.796Z,14.00
2022-12-29T06:49:31.496Z,15.32
2022-12-29T06:52:33.174Z,14.00
2022-12-29T06:55:34.848Z,12.70
2022-12-29T06:58:36.487Z,12.88
2022-12-29T07:01:38.464Z,12.35
2022-12-29T07:04:40.261Z,13.57
2022-12-29T07:07:41.918Z,12.88
2022-12-29T07:10:43.632Z,13.15
2022-12-29T07:13:45.292Z,10.85
2022-12-29T07:16:47.055Z,12.95
2022-12-29T07:19:48.769Z,10.68
2022-12-29T07:22:50.396Z,10.70
2022-12-29T07:26:03.142Z,11.38
2022-12-29T07:29:05.614Z,11.40
2022-12-29T07:32:07.364Z,11.40
2022-12-29T07:35:09.169Z,10.85
2022-12-29T07:38:10.792Z,11.55
2022-12-29T07:41:12.529Z,10.60
2022-12-29T07:44:14.416Z,10.95
2022-12-29T07:47:16.075Z,11.60
2022-12-29T07:50:18.200Z,11.15
2022-12-29T07:53:20.112Z,12.30
2022-12-29T07:56:21.747Z,11.55
2022-12-29T07:59:23.454Z,11.98
2022-12-29T08:02:27.307Z,11.52
2022-12-29T08:05:29.190Z,12.10
2022-12-29T08:08:30.844Z,12.25
2022-12-29T08:11:32.503Z,12.45
2022-12-29T08:14:34.178Z,14.23
2022-12-29T08:17:35.887Z,16.52
2022-12-29T08:20:37.571Z,16.25
2022-12-29T08:23:39.252Z,21.10
2022-12-29T08:26:40.908Z,17.12
2022-12-29T08:29:42.823Z,12.48
2022-12-29T08:32:44.507Z,13.18
2022-12-29T08:35:46.362Z,12.68
2022-12-29T08:38:48.042Z,12.77
2022-12-29T08:41:49.815Z,13.62
2022-12-29T08:44:51.475Z,13.10
2022-12-29T08:47:53.111Z,18.85
2022-12-29T08:50:54.912Z,13.55
2022-12-29T08:53:56.563Z,14.60
2022-12-29T08:56:58.190Z,24.95
2022-12-29T08:59:59.836Z,36.72
2022-12-29T09:03:01.655Z,20.65
2022-12-29T09:06:03.747Z,16.87
2022-12-29T09:09:05.448Z,16.73
2022-12-29T09:12:07.211Z,13.40
2022-12-29T09:15:09.566Z,14.02
2022-12-29T09:18:16.257Z,12.35
2022-12-29T09:21:21.156Z,15.45
2022-12-29T09:24:22.783Z,12.75
2022-12-29T09:27:24.467Z,12.75
2022-12-29T09:30:26.169Z,13.52
2022-12-29T09:33:28.755Z,13.30
2022-12-29T09:36:30.517Z,14.48
2022-12-29T09:39:32.236Z,14.38
2022-12-29T09:42:42.138Z,16.30
2022-12-29T09:45:48.029Z,14.02
2022-12-29T09:48:57.172Z,12.93
2022-12-29T09:52:07.091Z,14.07
2022-12-29T09:55:16.719Z,14.70
2022-12-29T09:58:30.325Z,13.48
2022-12-29T10:01:32.064Z,13.45
2022-12-29T10:04:33.877Z,15.35
2022-12-29T10:07:58.207Z,13.98
2022-12-29T10:11:31.167Z,15.05
2022-12-29T10:15:06.120Z,13.43
2022-12-29T10:18:33.270Z,12.85
2022-12-29T10:21:49.914Z,15.90
2022-12-29T10:24:54.473Z,11.90
2022-12-29T10:28:01.470Z,13.18
2022-12-29T10:31:09.205Z,13.57
2022-12-29T10:34:26.771Z,21.83
2022-12-29T10:37:46.298Z,13.05
2022-12-29T10:40:52.229Z,20.50
2022-12-29T10:43:57.953Z,14.73
2022-12-29T10:47:03.636Z,15.13
2022-12-29T10:50:05.941Z,13.95
2022-12-29T10:53:07.734Z,13.73
2022-12-29T10:56:41.574Z,14.57
2022-12-29T10:59:43.239Z,14.02
2022-12-29T11:02:45.503Z,16.45
2022-12-29T11:06:10.349Z,14.32
2022-12-29T11:09:47.680Z,14.85
2022-12-29T11:12:59.864Z,18.27
2022-12-29T11:16:03.951Z,19.10
2022-12-29T11:19:06.022Z,18.25
2022-12-29T11:22:35.041Z,18.58
2022-12-29T11:25:36.714Z,17.70
2022-12-29T11:28:48.158Z,18.25
2022-12-29T11:31:53.688Z,16.45
2022-12-29T11:34:55.445Z,17.25
2022-12-29T11:37:59.648Z,15.55
2022-12-29T11:41:02.591Z,15.90
2022-12-29T11:44:06.961Z,15.48
2022-12-29T11:47:13.531Z,15.15
2022-12-29T11:50:37.163Z,14.82
2022-12-29T11:53:52.919Z,27.42
2022-12-29T11:56:55.965Z,18.83
2022-12-29T12:00:00.812Z,23.73
2022-12-29T12:03:13.191Z,22.20
2022-12-29T12:06:21.777Z,15.90
2022-12-29T12:09:30.149Z,16.35
2022-12-29T12:12:49.893Z,16.65
2022-12-29T12:16:03.313Z,17.67
2022-12-29T12:19:14.989Z,23.98
2022-12-29T12:22:35.449Z,32.90
2022-12-29T12:25:41.584Z,37.00
2022-12-29T12:29:22.258Z,32.10
2022-12-29T12:32:47.589Z,18.02
2022-12-29T12:36:10.323Z,21.23
2022-12-29T12:39:27.178Z,18.27
2022-12-29T12:42:34.681Z,14.27
2022-12-29T12:49:00.228Z,14.68
2022-12-29T12:52:26.144Z,16.48
2022-12-29T12:55:46.706Z,14.55
2022-12-29T12:58:54.394Z,17.55
2022-12-29T13:02:21.278Z,17.95
2022-12-29T13:05:27.355Z,14.43
2022-12-29T13:08:38.299Z,13.57
2022-12-29T13:11:51.914Z,15.00
2022-12-29T13:15:11.805Z,13.95
2022-12-29T13:18:42.875Z,14.30
2022-12-29T13:22:00.065Z,15.68
2022-12-29T13:25:25.930Z,14.60
2022-12-29T13:29:11.856Z,13.38
2022-12-29T13:32:31.968Z,13.75
2022-12-29T13:35:51.976Z,13.82
2022-12-29T13:39:12.078Z,12.80
2022-12-29T13:42:19.698Z,13.18
2022-12-29T13:45:25.742Z,12.80
2022-12-29T13:48:53.636Z,13.30
2022-12-29T13:52:05.500Z,13.85
2022-12-29T13:55:42.905Z,13.32
2022-12-29T13:58:51.584Z,13.55
2022-12-29T14:02:17.855Z,13.70
2022-12-29T14:05:22.278Z,13.30
2022-12-29T14:08:23.969Z,13.95
2022-12-29T14:11:33.596Z,14.07
2022-12-29T14:14:38.909Z,19.55
2022-12-29T14:17:41.746Z,17.67
2022-12-29T14:21:20.740Z,14.23
2022-12-29T14:27:53.887Z,15.48
2022-12-29T14:31:20.400Z,15.18
2022-12-29T14:34:22.025Z,17.30
2022-12-29T14:37:30.609Z,23.15
2022-12-29T14:40:32.270Z,23.83
2022-12-29T14:43:33.950Z,27.42
2022-12-29T14:46:56.720Z,33.20
2022-12-29T14:50:04.548Z,36.28
2022-12-29T14:53:08.105Z,29.25
2022-12-29T14:56:14.886Z,24.42
2022-12-29T14:59:18.419Z,19.73
2022-12-29T15:02:26.046Z,27.70
2022-12-29T15:05:35.968Z,28.73
2022-12-29T15:08:50.892Z,19.02
2022-12-29T15:11:57.341Z,19.85
2022-12-29T15:15:00.591Z,21.73
2022-12-29T15:18:33.541Z,18.33
2022-12-29T15:21:37.380Z,15.43
2022-12-29T15:24:43.773Z,17.27
2022-12-29T15:27:51.585Z,14.48
2022-12-29T15:30:54.082Z,16.33
2022-12-29T15:34:10.851Z,17.25
2022-12-29T15:37:19.797Z,16.87
2022-12-29T15:40:27.742Z,17.15
2022-12-29T15:43:53.096Z,28.45
2022-12-29T15:46:54.832Z,16.48
2022-12-29T15:50:22.644Z,15.82
2022-12-29T15:53:29.525Z,20.92
2022-12-29T15:56:33.083Z,24.15
2022-12-29T15:59:35.329Z,30.37
2022-12-29T16:02:37.195Z,30.98
2022-12-29T16:05:40.769Z,27.02
2022-12-29T16:08:42.507Z,27.45
2022-12-29T16:11:56.490Z,26.35
2022-12-29T16:15:02.547Z,26.65
2022-12-29T16:18:04.353Z,29.55
2022-12-29T16:21:17.219Z,23.50
2022-12-29T16:24:31.133Z,21.73
2022-12-29T16:27:34.427Z,21.40
2022-12-29T16:30:36.222Z,21.75
2022-12-29T16:33:47.768Z,20.17
2022-12-29T16:37:04.067Z,19.65
2022-12-29T16:40:31.351Z,19.40
2022-12-29T16:43:36.230Z,19.67
2022-12-29T16:46:44.261Z,22.33
2022-12-29T16:49:52.340Z,18.80
2022-12-29T16:52:54.087Z,17.60
2022-12-29T16:55:58.566Z,17.60
2022-12-29T16:59:03.214Z,19.48
2022-12-29T17:02:16.303Z,20.27
2022-12-29T17:05:20.020Z,18.98
2022-12-29T17:08:24.031Z,19.42
2022-12-29T17:11:59.248Z,19.25
2022-12-29T17:15:19.671Z,18.17
2022-12-29T17:18:21.340Z,23.60
2022-12-29T17:21:22.980Z,23.15
2022-12-29T17:24:24.779Z,20.05
2022-12-29T17:27:28.523Z,25.30
2022-12-29T17:30:34.092Z,23.60
2022-12-29T17:33:39.002Z,18.42
2022-12-29T17:36:40.721Z,18.87
2022-12-29T17:39:42.357Z,17.77
2022-12-29T17:42:46.338Z,18.08
2022-12-29T17:45:54.027Z,16.45
2022-12-29T17:48:55.728Z,20.15
2022-12-29T17:51:57.732Z,19.58
2022-12-29T17:55:01.064Z,22.35
2022-12-29T17:58:02.790Z,27.67
2022-12-29T18:01:04.949Z,50.63
2022-12-29T18:04:06.886Z,61.28
2022-12-29T18:07:11.636Z,49.25
2022-12-29T18:10:14.566Z,41.30
2022-12-29T18:13:46.026Z,38.08
2022-12-29T18:16:48.584Z,40.03
2022-12-29T18:19:52.711Z,47.30
2022-12-29T18:22:54.458Z,35.30
2022-12-29T18:26:00.600Z,35.95
2022-12-29T18:29:02.755Z,37.95
2022-12-29T18:32:04.999Z,39.83
2022-12-29T18:35:29.099Z,41.37
2022-12-29T18:38:31.844Z,40.75
2022-12-29T18:41:34.491Z,55.83
2022-12-29T18:44:36.336Z,56.42
2022-12-29T18:47:38.076Z,49.53
2022-12-29T18:50:39.977Z,61.72
2022-12-29T18:53:41.812Z,66.32
2022-12-29T18:56:43.483Z,57.80
2022-12-29T18:59:45.192Z,57.40
2022-12-29T19:02:47.736Z,49.13
2022-12-29T19:05:49.608Z,47.55
2022-12-29T19:08:51.366Z,49.13
2022-12-29T19:11:53.440Z,49.38
2022-12-29T19:14:55.462Z,45.53
2022-12-29T19:18:41.648Z,46.10
2022-12-29T19:21:22.463Z,47.08
2022-12-29T19:24:24.155Z,49.40
2022-12-29T19:27:26.225Z,47.90
2022-12-29T19:30:29.073Z,52.20
2022-12-29T19:33:30.905Z,50.15
2022-12-29T19:36:32.842Z,48.17
2022-12-29T19:39:34.518Z,43.33
2022-12-29T19:42:37.193Z,37.13
2022-12-29T19:45:40.986Z,37.85
2022-12-29T19:48:43.345Z,39.55
2022-12-29T19:51:45.441Z,40.35
2022-12-29T19:54:47.251Z,38.78
2022-12-29T19:57:49.395Z,35.08
2022-12-29T20:00:51.373Z,35.65
2022-12-29T20:03:53.404Z,34.42
2022-12-29T20:06:55.262Z,40.28
2022-12-29T20:09:57.148Z,43.97
2022-12-29T20:12:59.002Z,37.50
2022-12-29T20:16:07.623Z,36.25
2022-12-29T20:19:09.455Z,34.35
2022-12-29T20:22:11.711Z,36.03
2022-12-29T20:25:43.641Z,38.45
2022-12-29T20:28:35.467Z,78.62
2022-12-29T20:31:38.582Z,58.00
2022-12-29T20:34:40.911Z,41.78
2022-12-29T20:37:42.604Z,46.35
2022-12-29T20:40:46.995Z,44.45
2022-12-29T20:43:50.129Z,43.45
2022-12-29T20:46:52.452Z,47.78
2022-12-29T20:49:54.252Z,47.30
2022-12-29T20:52:56.021Z,43.22
2022-12-29T20:56:04.958Z,43.15
2022-12-29T20:59:27.067Z,44.70
2022-12-29T21:02:28.549Z,51.90
2022-12-29T21:05:30.596Z,46.15
2022-12-29T21:08:32.411Z,50.47
2022-12-29T21:11:34.531Z,53.13
2022-12-29T21:14:40.760Z,52.53
2022-12-29T21:17:45.549Z,56.85
2022-12-29T21:20:57.385Z,54.58
2022-12-29T21:24:05.653Z,52.42
2022-12-29T21:27:07.562Z,52.13
2022-12-29T21:30:10.248Z,43.40
2022-12-29T21:33:11.979Z,38.78
2022-12-29T21:36:13.714Z,38.15
2022-12-29T21:39:16.491Z,34.53
2022-12-29T21:42:18.472Z,34.50
2022-12-29T21:45:26.171Z,35.70
2022-12-29T21:48:30.171Z,36.88
2022-12-29T21:51:50.205Z,35.30
2022-12-29T21:55:00.759Z,32.47
2022-12-29T21:58:21.082Z,32.20
2022-12-29T22:01:42.680Z,32.58
2022-12-29T22:05:03.085Z,27.90
2022-12-29T22:08:23.517Z,27.83
2022-12-29T22:11:43.927Z,29.10
2022-12-29T22:14:45.588Z,29.42
2022-12-29T22:17:49.448Z,29.63
2022-12-29T22:20:51.686Z,29.45
2022-12-29T22:23:53.348Z,32.42
2022-12-29T22:26:55.035Z,30.95
2022-12-29T22:29:56.851Z,32.20
2022-12-29T22:32:59.032Z,30.10
2022-12-29T22:36:00.765Z,27.73
2022-12-29T22:39:02.622Z,26.35
2022-12-29T22:42:04.813Z,24.42
2022-12-29T22:45:08.183Z,24.85
2022-12-29T22:48:09.866Z,23.52
2022-12-29T22:51:11.562Z,24.42
2022-12-29T22:54:13.221Z,23.30
2022-12-29T22:57:14.913Z,25.40
2022-12-29T23:00:16.877Z,22.98
2022-12-29T23:03:18.772Z,24.92
2022-12-29T23:06:20.641Z,25.12
2022-12-29T23:09:23.138Z,25.70
2022-12-29T23:12:24.868Z,25.95
2022-12-29T23:15:26.588Z,25.48
2022-12-29T23:18:28.694Z,26.77
2022-12-29T23:21:30.457Z,27.02
2022-12-29T23:24:32.120Z,25.90
2022-12-29T23:27:33.805Z,27.05
2022-12-29T23:30:35.888Z,26.87
2022-12-29T23:33:37.750Z,27.87
2022-12-29T23:36:39.820Z,29.48
2022-12-29T23:39:41.495Z,27.20
2022-12-29T23:42:43.238Z,27.92
2022-12-29T23:45:50.647Z,25.73
2022-12-29T23:48:52.794Z,25.23
2022-12-29T23:51:54.454Z,24.55
2022-12-29T23:54:56.139Z,25.95
2022-12-29T23:57:57.794Z,24.77
